sensor_id;sensor_type;location;lat;lon;timestamp;temperature;humidity
36552;DHT22;22559;54.176;12.102;2024-01-10T00:00:13;-1.80;99.90
36552;DHT22;22559;54.176;12.102;2024-01-10T00:02:39;-1.80;99.90
36552;DHT22;22559;54.176;12.102;2024-01-10T00:05:05;-1.80;99.90
36552;DHT22;22559;54.176;12.102;2024-01-10T00:07:31;-1.80;99.90
36552;DHT22;22559;54.176;12.102;2024-01-10T00:09:57;-1.80;99.90
36552;DHT22;22559;54.176;12.102;2024-01-10T00:12:25;-1.70;99.90
36552;DHT22;22559;54.176;12.102;2024-01-10T00:14:51;-1.80;99.90
36552;DHT22;22559;54.176;12.102;2024-01-10T00:17:16;-1.80;99.90
36552;DHT22;22559;54.176;12.102;2024-01-10T00:19:42;-1.90;99.90
36552;DHT22;22559;54.176;12.102;2024-01-10T00:22:08;-1.90;99.90
36552;DHT22;22559;54.176;12.102;2024-01-10T00:24:33;-1.80;99.90
36552;DHT22;22559;54.176;12.102;2024-01-10T00:26:59;-1.90;99.90
36552;DHT22;22559;54.176;12.102;2024-01-10T00:29:25;-1.80;99.90
36552;DHT22;22559;54.176;12.102;2024-01-10T00:31:50;-1.80;99.90
36552;DHT22;22559;54.176;12.102;2024-01-10T00:34:18;-1.80;99.90
36552;DHT22;22559;54.176;12.102;2024-01-10T00:36:43;-1.80;99.90
36552;DHT22;22559;54.176;12.102;2024-01-10T00:39:09;-1.80;99.90
36552;DHT22;22559;54.176;12.102;2024-01-10T00:41:35;-1.80;99.90
36552;DHT22;22559;54.176;12.102;2024-01-10T00:44:00;-1.80;99.90
36552;DHT22;22559;54.176;12.102;2024-01-10T00:46:26;-1.80;99.90
36552;DHT22;22559;54.176;12.102;2024-01-10T00:48:51;-1.80;99.90
36552;DHT22;22559;54.176;12.102;2024-01-10T00:51:17;-1.80;99.90
36552;DHT22;22559;54.176;12.102;2024-01-10T00:53:43;-1.90;99.90
36552;DHT22;22559;54.176;12.102;2024-01-10T00:56:08;-1.80;99.90
36552;DHT22;22559;54.176;12.102;2024-01-10T00:58:35;-1.80;99.90
36552;DHT22;22559;54.176;12.102;2024-01-10T01:01:01;-1.80;99.90
36552;DHT22;22559;54.176;12.102;2024-01-10T01:03:26;-1.80;99.90
36552;DHT22;22559;54.176;12.102;2024-01-10T01:05:52;-1.80;99.90
36552;DHT22;22559;54.176;12.102;2024-01-10T01:08:18;-1.80;99.90
36552;DHT22;22559;54.176;12.102;2024-01-10T01:10:43;-1.80;99.90
36552;DHT22;22559;54.176;12.102;2024-01-10T01:13:09;-1.80;99.90
36552;DHT22;22559;54.176;12.102;2024-01-10T01:15:35;-1.80;99.90
36552;DHT22;22559;54.176;12.102;2024-01-10T01:18:00;-1.70;99.90
36552;DHT22;22559;54.176;12.102;2024-01-10T01:20:26;-1.60;99.90
36552;DHT22;22559;54.176;12.102;2024-01-10T01:22:51;-1.60;99.90
36552;DHT22;22559;54.176;12.102;2024-01-10T01:25:18;-1.60;99.90
36552;DHT22;22559;54.176;12.102;2024-01-10T01:27:43;-1.60;99.90
36552;DHT22;22559;54.176;12.102;2024-01-10T01:30:09;-1.60;99.90
36552;DHT22;22559;54.176;12.102;2024-01-10T01:32:37;-1.60;99.90
36552;DHT22;22559;54.176;12.102;2024-01-10T01:35:03;-1.60;99.90
36552;DHT22;22559;54.176;12.102;2024-01-10T01:37:28;-1.50;99.90
36552;DHT22;22559;54.176;12.102;2024-01-10T01:39:54;-1.40;99.90
36552;DHT22;22559;54.176;12.102;2024-01-10T01:42:20;-1.40;99.90
36552;DHT22;22559;54.176;12.102;2024-01-10T01:44:47;-1.50;99.90
36552;DHT22;22559;54.176;12.102;2024-01-10T01:47:12;-1.50;99.90
36552;DHT22;22559;54.176;12.102;2024-01-10T01:49:39;-1.60;99.90
36552;DHT22;22559;54.176;12.102;2024-01-10T01:52:05;-1.40;99.90
36552;DHT22;22559;54.176;12.102;2024-01-10T01:54:31;-1.40;99.90
36552;DHT22;22559;54.176;12.102;2024-01-10T01:56:58;-1.40;99.90
36552;DHT22;22559;54.176;12.102;2024-01-10T01:59:24;-1.40;99.90
36552;DHT22;22559;54.176;12.102;2024-01-10T02:01:52;-1.40;99.90
36552;DHT22;22559;54.176;12.102;2024-01-10T02:04:20;-1.30;99.90
36552;DHT22;22559;54.176;12.102;2024-01-10T02:06:45;-1.30;99.90
36552;DHT22;22559;54.176;12.102;2024-01-10T02:09:11;-1.30;99.90
36552;DHT22;22559;54.176;12.102;2024-01-10T02:11:37;-1.30;99.90
36552;DHT22;22559;54.176;12.102;2024-01-10T02:14:03;-1.30;99.90
36552;DHT22;22559;54.176;12.102;2024-01-10T02:16:29;-1.20;99.90
36552;DHT22;22559;54.176;12.102;2024-01-10T02:18:55;-1.30;99.90
36552;DHT22;22559;54.176;12.102;2024-01-10T02:21:21;-1.30;99.90
36552;DHT22;22559;54.176;12.102;2024-01-10T02:23:47;-1.20;99.90
36552;DHT22;22559;54.176;12.102;2024-01-10T02:26:14;-1.20;99.90
36552;DHT22;22559;54.176;12.102;2024-01-10T02:28:40;-1.20;99.90
36552;DHT22;22559;54.176;12.102;2024-01-10T02:31:06;-1.20;99.90
36552;DHT22;22559;54.176;12.102;2024-01-10T02:33:32;-1.20;99.90
36552;DHT22;22559;54.176;12.102;2024-01-10T02:35:58;-1.10;99.90
36552;DHT22;22559;54.176;12.102;2024-01-10T02:38:24;-1.10;99.90
36552;DHT22;22559;54.176;12.102;2024-01-10T02:40:49;-1.10;99.90
36552;DHT22;22559;54.176;12.102;2024-01-10T02:43:15;-1.10;99.90
36552;DHT22;22559;54.176;12.102;2024-01-10T02:45:41;-1.00;99.90
36552;DHT22;22559;54.176;12.102;2024-01-10T02:48:07;-1.10;99.90
36552;DHT22;22559;54.176;12.102;2024-01-10T02:50:32;-1.00;99.90
36552;DHT22;22559;54.176;12.102;2024-01-10T02:52:58;-1.00;99.90
36552;DHT22;22559;54.176;12.102;2024-01-10T02:55:24;-1.00;99.90
36552;DHT22;22559;54.176;12.102;2024-01-10T02:57:49;-0.90;99.90
36552;DHT22;22559;54.176;12.102;2024-01-10T03:00:15;-0.90;99.90
36552;DHT22;22559;54.176;12.102;2024-01-10T03:02:41;-0.90;99.90
36552;DHT22;22559;54.176;12.102;2024-01-10T03:05:07;-1.00;99.90
36552;DHT22;22559;54.176;12.102;2024-01-10T03:07:33;-0.90;99.90
36552;DHT22;22559;54.176;12.102;2024-01-10T03:09:58;-0.90;99.90
36552;DHT22;22559;54.176;12.102;2024-01-10T03:12:24;-0.90;99.90
36552;DHT22;22559;54.176;12.102;2024-01-10T03:14:50;-0.80;99.90
36552;DHT22;22559;54.176;12.102;2024-01-10T03:17:15;-0.90;99.90
36552;DHT22;22559;54.176;12.102;2024-01-10T03:19:41;-0.80;99.90
36552;DHT22;22559;54.176;12.102;2024-01-10T03:22:10;-0.80;99.90
36552;DHT22;22559;54.176;12.102;2024-01-10T03:24:38;-0.80;99.90
36552;DHT22;22559;54.176;12.102;2024-01-10T03:27:05;-0.80;99.90
36552;DHT22;22559;54.176;12.102;2024-01-10T03:29:31;-0.80;99.90
36552;DHT22;22559;54.176;12.102;2024-01-10T03:31:57;-0.80;99.90
36552;DHT22;22559;54.176;12.102;2024-01-10T03:34:23;-0.80;99.90
36552;DHT22;22559;54.176;12.102;2024-01-10T03:36:48;-0.80;99.90
36552;DHT22;22559;54.176;12.102;2024-01-10T03:39:14;-0.80;99.90
36552;DHT22;22559;54.176;12.102;2024-01-10T03:41:39;-0.90;99.90
36552;DHT22;22559;54.176;12.102;2024-01-10T03:44:05;-0.80;99.90
36552;DHT22;22559;54.176;12.102;2024-01-10T03:46:31;-0.80;99.90
36552;DHT22;22559;54.176;12.102;2024-01-10T03:48:56;-0.90;99.90
36552;DHT22;22559;54.176;12.102;2024-01-10T03:51:22;-0.90;99.90
36552;DHT22;22559;54.176;12.102;2024-01-10T03:53:49;-0.80;99.90
36552;DHT22;22559;54.176;12.102;2024-01-10T03:56:15;-0.80;99.90
36552;DHT22;22559;54.176;12.102;2024-01-10T03:58:40;-0.90;99.90
36552;DHT22;22559;54.176;12.102;2024-01-10T04:01:07;-0.80;99.90
36552;DHT22;22559;54.176;12.102;2024-01-10T04:03:33;-0.80;99.90
36552;DHT22;22559;54.176;12.102;2024-01-10T04:06:00;-0.80;99.90
36552;DHT22;22559;54.176;12.102;2024-01-10T04:08:26;-0.90;99.90
36552;DHT22;22559;54.176;12.102;2024-01-10T04:10:51;-0.80;99.90
36552;DHT22;22559;54.176;12.102;2024-01-10T04:13:17;-0.80;99.90
36552;DHT22;22559;54.176;12.102;2024-01-10T04:15:42;-0.80;99.90
36552;DHT22;22559;54.176;12.102;2024-01-10T04:18:08;-0.80;99.90
36552;DHT22;22559;54.176;12.102;2024-01-10T04:20:34;-0.80;99.90
36552;DHT22;22559;54.176;12.102;2024-01-10T04:22:59;-0.80;99.90
36552;DHT22;22559;54.176;12.102;2024-01-10T04:25:25;-0.70;99.90
36552;DHT22;22559;54.176;12.102;2024-01-10T04:27:50;-0.80;99.90
36552;DHT22;22559;54.176;12.102;2024-01-10T04:30:16;-0.80;99.90
36552;DHT22;22559;54.176;12.102;2024-01-10T04:32:42;-0.70;99.90
36552;DHT22;22559;54.176;12.102;2024-01-10T04:35:07;-0.70;99.90
36552;DHT22;22559;54.176;12.102;2024-01-10T04:37:33;-0.70;99.90
36552;DHT22;22559;54.176;12.102;2024-01-10T04:39:59;-0.80;99.90
36552;DHT22;22559;54.176;12.102;2024-01-10T04:42:24;-0.70;99.90
36552;DHT22;22559;54.176;12.102;2024-01-10T04:44:50;-0.70;99.90
36552;DHT22;22559;54.176;12.102;2024-01-10T04:47:16;-0.80;99.90
36552;DHT22;22559;54.176;12.102;2024-01-10T04:49:42;-0.70;99.90
36552;DHT22;22559;54.176;12.102;2024-01-10T04:52:07;-0.70;99.90
36552;DHT22;22559;54.176;12.102;2024-01-10T04:54:33;-0.70;99.90
36552;DHT22;22559;54.176;12.102;2024-01-10T04:56:59;-0.70;99.90
36552;DHT22;22559;54.176;12.102;2024-01-10T04:59:25;-0.80;99.90
36552;DHT22;22559;54.176;12.102;2024-01-10T05:01:50;-0.80;99.90
36552;DHT22;22559;54.176;12.102;2024-01-10T05:04:16;-0.80;99.90
36552;DHT22;22559;54.176;12.102;2024-01-10T05:06:41;-0.90;99.90
36552;DHT22;22559;54.176;12.102;2024-01-10T05:09:07;-0.90;99.90
36552;DHT22;22559;54.176;12.102;2024-01-10T05:11:33;-0.80;99.90
36552;DHT22;22559;54.176;12.102;2024-01-10T05:14:01;-0.90;99.90
36552;DHT22;22559;54.176;12.102;2024-01-10T05:16:27;-1.00;99.90
36552;DHT22;22559;54.176;12.102;2024-01-10T05:18:52;-1.10;99.90
36552;DHT22;22559;54.176;12.102;2024-01-10T05:21:18;-1.10;99.90
36552;DHT22;22559;54.176;12.102;2024-01-10T05:23:44;-1.00;99.90
36552;DHT22;22559;54.176;12.102;2024-01-10T05:26:10;-1.00;99.90
36552;DHT22;22559;54.176;12.102;2024-01-10T05:28:35;-1.00;99.90
36552;DHT22;22559;54.176;12.102;2024-01-10T05:31:01;-1.10;99.90
36552;DHT22;22559;54.176;12.102;2024-01-10T05:33:27;-1.10;99.90
36552;DHT22;22559;54.176;12.102;2024-01-10T05:35:52;-1.10;99.90
36552;DHT22;22559;54.176;12.102;2024-01-10T05:38:18;-1.10;99.90
36552;DHT22;22559;54.176;12.102;2024-01-10T05:40:44;-1.10;99.90
36552;DHT22;22559;54.176;12.102;2024-01-10T05:43:09;-1.10;99.90
36552;DHT22;22559;54.176;12.102;2024-01-10T05:45:38;-1.10;99.90
36552;DHT22;22559;54.176;12.102;2024-01-10T05:48:04;-1.10;99.90
36552;DHT22;22559;54.176;12.102;2024-01-10T05:50:31;-1.10;99.90
36552;DHT22;22559;54.176;12.102;2024-01-10T05:52:57;-1.10;99.90
36552;DHT22;22559;54.176;12.102;2024-01-10T05:55:23;-1.10;99.90
36552;DHT22;22559;54.176;12.102;2024-01-10T05:57:50;-1.10;99.90
36552;DHT22;22559;54.176;12.102;2024-01-10T06:00:16;-1.10;99.90
36552;DHT22;22559;54.176;12.102;2024-01-10T06:02:42;-1.20;99.90
36552;DHT22;22559;54.176;12.102;2024-01-10T06:05:09;-1.20;99.90
36552;DHT22;22559;54.176;12.102;2024-01-10T06:07:36;-1.20;99.90
36552;DHT22;22559;54.176;12.102;2024-01-10T06:10:02;-1.10;99.90
36552;DHT22;22559;54.176;12.102;2024-01-10T06:12:27;-1.00;99.90
36552;DHT22;22559;54.176;12.102;2024-01-10T06:14:53;-1.10;99.90
36552;DHT22;22559;54.176;12.102;2024-01-10T06:17:19;-1.00;99.90
36552;DHT22;22559;54.176;12.102;2024-01-10T06:19:45;-1.00;99.90
36552;DHT22;22559;54.176;12.102;2024-01-10T06:22:11;-1.00;99.90
36552;DHT22;22559;54.176;12.102;2024-01-10T06:24:37;-0.90;99.90
36552;DHT22;22559;54.176;12.102;2024-01-10T06:27:03;-0.90;99.90
36552;DHT22;22559;54.176;12.102;2024-01-10T06:29:30;-0.90;99.90
36552;DHT22;22559;54.176;12.102;2024-01-10T06:31:55;-1.00;99.90
36552;DHT22;22559;54.176;12.102;2024-01-10T06:34:22;-1.00;99.90
36552;DHT22;22559;54.176;12.102;2024-01-10T06:36:48;-1.00;99.90
36552;DHT22;22559;54.176;12.102;2024-01-10T06:39:13;-1.00;99.90
36552;DHT22;22559;54.176;12.102;2024-01-10T06:41:41;-1.00;99.90
36552;DHT22;22559;54.176;12.102;2024-01-10T06:44:07;-1.00;99.90
36552;DHT22;22559;54.176;12.102;2024-01-10T06:46:33;-1.00;99.90
36552;DHT22;22559;54.176;12.102;2024-01-10T06:48:59;-1.00;99.90
36552;DHT22;22559;54.176;12.102;2024-01-10T06:51:24;-1.00;99.90
36552;DHT22;22559;54.176;12.102;2024-01-10T06:53:52;-1.00;99.90
36552;DHT22;22559;54.176;12.102;2024-01-10T06:56:17;-1.00;99.90
36552;DHT22;22559;54.176;12.102;2024-01-10T06:58:43;-1.10;99.90
36552;DHT22;22559;54.176;12.102;2024-01-10T07:01:13;-1.10;99.90
36552;DHT22;22559;54.176;12.102;2024-01-10T07:03:40;-1.00;99.90
36552;DHT22;22559;54.176;12.102;2024-01-10T07:06:05;-1.00;99.90
36552;DHT22;22559;54.176;12.102;2024-01-10T07:08:31;-1.00;99.90
36552;DHT22;22559;54.176;12.102;2024-01-10T07:10:57;-1.10;99.90
36552;DHT22;22559;54.176;12.102;2024-01-10T07:13:23;-1.10;99.90
36552;DHT22;22559;54.176;12.102;2024-01-10T07:15:49;-1.00;99.90
36552;DHT22;22559;54.176;12.102;2024-01-10T07:18:18;-1.10;99.90
36552;DHT22;22559;54.176;12.102;2024-01-10T07:20:43;-1.00;99.90
36552;DHT22;22559;54.176;12.102;2024-01-10T07:23:09;-1.10;99.90
36552;DHT22;22559;54.176;12.102;2024-01-10T07:25:35;-1.00;99.90
36552;DHT22;22559;54.176;12.102;2024-01-10T07:28:02;-1.00;99.90
36552;DHT22;22559;54.176;12.102;2024-01-10T07:30:28;-1.00;99.90
36552;DHT22;22559;54.176;12.102;2024-01-10T07:32:58;-1.00;99.90
36552;DHT22;22559;54.176;12.102;2024-01-10T07:35:24;-1.00;99.90
36552;DHT22;22559;54.176;12.102;2024-01-10T07:37:49;-1.00;99.90
36552;DHT22;22559;54.176;12.102;2024-01-10T07:40:15;-1.00;99.90
36552;DHT22;22559;54.176;12.102;2024-01-10T07:42:42;-1.10;99.90
36552;DHT22;22559;54.176;12.102;2024-01-10T07:45:08;-1.10;99.90
36552;DHT22;22559;54.176;12.102;2024-01-10T07:47:34;-1.10;99.90
36552;DHT22;22559;54.176;12.102;2024-01-10T07:50:07;-1.20;99.90
36552;DHT22;22559;54.176;12.102;2024-01-10T07:52:33;-1.10;99.90
36552;DHT22;22559;54.176;12.102;2024-01-10T07:54:59;-1.10;99.90
36552;DHT22;22559;54.176;12.102;2024-01-10T07:57:25;-1.10;99.90
36552;DHT22;22559;54.176;12.102;2024-01-10T07:59:52;-1.10;99.90
36552;DHT22;22559;54.176;12.102;2024-01-10T08:02:18;-1.10;99.90
36552;DHT22;22559;54.176;12.102;2024-01-10T08:04:44;-1.00;99.90
36552;DHT22;22559;54.176;12.102;2024-01-10T08:07:09;-1.00;99.90
36552;DHT22;22559;54.176;12.102;2024-01-10T08:09:35;-1.10;99.90
36552;DHT22;22559;54.176;12.102;2024-01-10T08:12:02;-1.00;99.90
36552;DHT22;22559;54.176;12.102;2024-01-10T08:14:28;-1.10;99.90
36552;DHT22;22559;54.176;12.102;2024-01-10T08:16:54;-1.10;99.90
36552;DHT22;22559;54.176;12.102;2024-01-10T08:19:26;-1.00;99.90
36552;DHT22;22559;54.176;12.102;2024-01-10T08:21:53;-1.00;99.90
36552;DHT22;22559;54.176;12.102;2024-01-10T08:24:19;-1.00;99.90
36552;DHT22;22559;54.176;12.102;2024-01-10T08:26:46;-1.00;99.90
36552;DHT22;22559;54.176;12.102;2024-01-10T08:29:12;-1.00;99.90
36552;DHT22;22559;54.176;12.102;2024-01-10T08:31:38;-0.90;99.90
36552;DHT22;22559;54.176;12.102;2024-01-10T08:34:04;-0.90;99.90
36552;DHT22;22559;54.176;12.102;2024-01-10T08:36:30;-0.90;99.90
36552;DHT22;22559;54.176;12.102;2024-01-10T08:38:55;-0.90;99.90
36552;DHT22;22559;54.176;12.102;2024-01-10T08:41:21;-0.90;99.90
36552;DHT22;22559;54.176;12.102;2024-01-10T08:43:47;-0.90;99.90
36552;DHT22;22559;54.176;12.102;2024-01-10T08:46:13;-0.90;99.90
36552;DHT22;22559;54.176;12.102;2024-01-10T08:48:38;-0.80;99.90
36552;DHT22;22559;54.176;12.102;2024-01-10T08:51:04;-0.90;99.90
36552;DHT22;22559;54.176;12.102;2024-01-10T08:53:30;-0.90;99.90
36552;DHT22;22559;54.176;12.102;2024-01-10T08:55:55;-0.90;99.90
36552;DHT22;22559;54.176;12.102;2024-01-10T08:58:21;-0.90;99.90
36552;DHT22;22559;54.176;12.102;2024-01-10T09:00:47;-0.90;99.90
36552;DHT22;22559;54.176;12.102;2024-01-10T09:03:13;-0.90;99.90
36552;DHT22;22559;54.176;12.102;2024-01-10T09:05:38;-0.80;99.90
36552;DHT22;22559;54.176;12.102;2024-01-10T09:08:04;-0.80;99.90
36552;DHT22;22559;54.176;12.102;2024-01-10T09:10:30;-0.80;99.90
36552;DHT22;22559;54.176;12.102;2024-01-10T09:15:23;-0.80;99.90
36552;DHT22;22559;54.176;12.102;2024-01-10T09:17:50;-0.80;99.90
36552;DHT22;22559;54.176;12.102;2024-01-10T09:20:17;-0.80;99.90
36552;DHT22;22559;54.176;12.102;2024-01-10T09:22:43;-0.80;99.90
36552;DHT22;22559;54.176;12.102;2024-01-10T09:25:09;-0.70;99.90
36552;DHT22;22559;54.176;12.102;2024-01-10T09:27:39;-0.70;99.90
36552;DHT22;22559;54.176;12.102;2024-01-10T09:30:07;-0.70;99.90
36552;DHT22;22559;54.176;12.102;2024-01-10T09:32:35;-0.70;99.90
36552;DHT22;22559;54.176;12.102;2024-01-10T09:35:02;-0.70;99.90
36552;DHT22;22559;54.176;12.102;2024-01-10T09:37:27;-0.60;99.90
36552;DHT22;22559;54.176;12.102;2024-01-10T09:39:53;-0.60;99.90
36552;DHT22;22559;54.176;12.102;2024-01-10T09:42:19;-0.60;99.90
36552;DHT22;22559;54.176;12.102;2024-01-10T09:44:53;-0.50;99.90
36552;DHT22;22559;54.176;12.102;2024-01-10T09:47:20;-0.60;99.90
36552;DHT22;22559;54.176;12.102;2024-01-10T09:49:46;-0.50;99.90
36552;DHT22;22559;54.176;12.102;2024-01-10T09:52:20;-0.50;99.90
36552;DHT22;22559;54.176;12.102;2024-01-10T09:54:53;-0.50;99.90
36552;DHT22;22559;54.176;12.102;2024-01-10T09:57:19;-0.40;99.90
36552;DHT22;22559;54.176;12.102;2024-01-10T09:59:47;-0.30;99.90
36552;DHT22;22559;54.176;12.102;2024-01-10T10:02:13;-0.30;99.90
36552;DHT22;22559;54.176;12.102;2024-01-10T10:04:56;-0.20;99.90
36552;DHT22;22559;54.176;12.102;2024-01-10T10:07:26;-0.20;99.90
36552;DHT22;22559;54.176;12.102;2024-01-10T10:09:52;-0.20;99.90
36552;DHT22;22559;54.176;12.102;2024-01-10T10:12:19;-0.20;99.90
36552;DHT22;22559;54.176;12.102;2024-01-10T10:14:44;-0.10;99.90
36552;DHT22;22559;54.176;12.102;2024-01-10T10:17:17;-0.10;99.90
36552;DHT22;22559;54.176;12.102;2024-01-10T10:19:43;0.00;99.90
36552;DHT22;22559;54.176;12.102;2024-01-10T10:22:10;0.00;99.90
36552;DHT22;22559;54.176;12.102;2024-01-10T10:24:36;0.00;99.90
36552;DHT22;22559;54.176;12.102;2024-01-10T10:27:11;0.00;99.90
36552;DHT22;22559;54.176;12.102;2024-01-10T10:29:37;0.10;99.90
36552;DHT22;22559;54.176;12.102;2024-01-10T10:32:03;0.20;99.90
36552;DHT22;22559;54.176;12.102;2024-01-10T10:34:31;0.20;99.90
36552;DHT22;22559;54.176;12.102;2024-01-10T10:36:58;0.20;99.90
36552;DHT22;22559;54.176;12.102;2024-01-10T10:39:24;0.30;99.90
36552;DHT22;22559;54.176;12.102;2024-01-10T10:41:50;0.30;99.90
36552;DHT22;22559;54.176;12.102;2024-01-10T10:44:19;0.30;99.90
36552;DHT22;22559;54.176;12.102;2024-01-10T10:46:49;0.30;99.90
36552;DHT22;22559;54.176;12.102;2024-01-10T10:49:18;0.30;99.90
36552;DHT22;22559;54.176;12.102;2024-01-10T10:51:49;0.40;99.90
36552;DHT22;22559;54.176;12.102;2024-01-10T10:54:16;0.40;99.90
36552;DHT22;22559;54.176;12.102;2024-01-10T10:56:43;0.40;99.90
36552;DHT22;22559;54.176;12.102;2024-01-10T10:59:10;0.50;99.90
36552;DHT22;22559;54.176;12.102;2024-01-10T11:01:38;0.60;99.90
36552;DHT22;22559;54.176;12.102;2024-01-10T11:04:05;0.50;99.90
36552;DHT22;22559;54.176;12.102;2024-01-10T11:06:32;0.60;99.90
36552;DHT22;22559;54.176;12.102;2024-01-10T11:09:02;0.70;99.90
36552;DHT22;22559;54.176;12.102;2024-01-10T11:14:13;0.80;99.90
36552;DHT22;22559;54.176;12.102;2024-01-10T11:24:23;0.80;99.90
36552;DHT22;22559;54.176;12.102;2024-01-10T11:26:49;0.80;99.90
36552;DHT22;22559;54.176;12.102;2024-01-10T11:29:15;0.80;99.90
36552;DHT22;22559;54.176;12.102;2024-01-10T11:31:41;0.90;99.90
36552;DHT22;22559;54.176;12.102;2024-01-10T11:34:08;0.90;99.90
36552;DHT22;22559;54.176;12.102;2024-01-10T11:36:34;0.90;99.90
36552;DHT22;22559;54.176;12.102;2024-01-10T11:39:03;0.90;99.90
36552;DHT22;22559;54.176;12.102;2024-01-10T11:41:34;0.90;99.90
36552;DHT22;22559;54.176;12.102;2024-01-10T11:46:48;1.00;99.90
36552;DHT22;22559;54.176;12.102;2024-01-10T11:49:16;1.00;99.90
36552;DHT22;22559;54.176;12.102;2024-01-10T11:51:43;1.10;99.90
36552;DHT22;22559;54.176;12.102;2024-01-10T11:54:10;1.10;99.90
36552;DHT22;22559;54.176;12.102;2024-01-10T11:56:42;1.10;99.90
36552;DHT22;22559;54.176;12.102;2024-01-10T11:59:12;1.10;99.90
36552;DHT22;22559;54.176;12.102;2024-01-10T12:01:39;1.10;99.90
36552;DHT22;22559;54.176;12.102;2024-01-10T12:04:06;1.10;99.90
36552;DHT22;22559;54.176;12.102;2024-01-10T12:06:34;1.10;99.90
36552;DHT22;22559;54.176;12.102;2024-01-10T12:09:00;1.20;99.90
36552;DHT22;22559;54.176;12.102;2024-01-10T12:11:34;1.30;99.90
36552;DHT22;22559;54.176;12.102;2024-01-10T12:14:01;1.40;99.90
36552;DHT22;22559;54.176;12.102;2024-01-10T12:16:27;1.40;99.90
36552;DHT22;22559;54.176;12.102;2024-01-10T12:18:52;1.40;99.90
36552;DHT22;22559;54.176;12.102;2024-01-10T12:21:18;1.40;99.90
36552;DHT22;22559;54.176;12.102;2024-01-10T12:23:44;1.40;99.90
36552;DHT22;22559;54.176;12.102;2024-01-10T12:26:10;1.40;99.90
36552;DHT22;22559;54.176;12.102;2024-01-10T12:28:39;1.40;99.90
36552;DHT22;22559;54.176;12.102;2024-01-10T12:31:07;1.40;99.90
36552;DHT22;22559;54.176;12.102;2024-01-10T12:33:34;1.40;99.90
36552;DHT22;22559;54.176;12.102;2024-01-10T12:36:06;1.40;99.90
36552;DHT22;22559;54.176;12.102;2024-01-10T12:38:33;1.40;99.90
36552;DHT22;22559;54.176;12.102;2024-01-10T12:40:58;1.40;99.90
36552;DHT22;22559;54.176;12.102;2024-01-10T12:43:24;1.40;99.90
36552;DHT22;22559;54.176;12.102;2024-01-10T12:46:10;1.40;99.90
36552;DHT22;22559;54.176;12.102;2024-01-10T12:48:37;1.40;99.90
36552;DHT22;22559;54.176;12.102;2024-01-10T12:51:04;1.40;99.90
36552;DHT22;22559;54.176;12.102;2024-01-10T12:53:38;1.40;99.90
36552;DHT22;22559;54.176;12.102;2024-01-10T12:56:05;1.40;99.90
36552;DHT22;22559;54.176;12.102;2024-01-10T12:58:32;1.40;99.90
36552;DHT22;22559;54.176;12.102;2024-01-10T13:00:58;1.40;99.90
36552;DHT22;22559;54.176;12.102;2024-01-10T13:03:24;1.30;99.90
36552;DHT22;22559;54.176;12.102;2024-01-10T13:05:51;1.30;99.90
36552;DHT22;22559;54.176;12.102;2024-01-10T13:08:17;1.40;99.90
36552;DHT22;22559;54.176;12.102;2024-01-10T13:10:44;1.30;99.90
36552;DHT22;22559;54.176;12.102;2024-01-10T13:13:11;1.40;99.90
36552;DHT22;22559;54.176;12.102;2024-01-10T13:15:37;1.30;99.90
36552;DHT22;22559;54.176;12.102;2024-01-10T13:18:03;1.40;99.90
36552;DHT22;22559;54.176;12.102;2024-01-10T13:20:29;1.40;99.90
36552;DHT22;22559;54.176;12.102;2024-01-10T13:22:54;1.30;99.90
36552;DHT22;22559;54.176;12.102;2024-01-10T13:25:20;1.30;99.90
36552;DHT22;22559;54.176;12.102;2024-01-10T13:27:52;1.30;99.90
36552;DHT22;22559;54.176;12.102;2024-01-10T13:30:18;1.20;99.90
36552;DHT22;22559;54.176;12.102;2024-01-10T13:32:46;1.20;99.90
36552;DHT22;22559;54.176;12.102;2024-01-10T13:35:13;1.30;99.90
36552;DHT22;22559;54.176;12.102;2024-01-10T13:37:39;1.40;99.90
36552;DHT22;22559;54.176;12.102;2024-01-10T13:40:07;1.40;99.90
36552;DHT22;22559;54.176;12.102;2024-01-10T13:42:33;1.30;99.90
36552;DHT22;22559;54.176;12.102;2024-01-10T13:44:59;1.30;99.90
36552;DHT22;22559;54.176;12.102;2024-01-10T13:47:24;1.30;99.90
36552;DHT22;22559;54.176;12.102;2024-01-10T13:49:50;1.30;99.90
36552;DHT22;22559;54.176;12.102;2024-01-10T13:52:16;1.30;99.90
36552;DHT22;22559;54.176;12.102;2024-01-10T13:54:41;1.40;99.90
36552;DHT22;22559;54.176;12.102;2024-01-10T13:57:08;1.40;99.90
36552;DHT22;22559;54.176;12.102;2024-01-10T13:59:33;1.40;99.90
36552;DHT22;22559;54.176;12.102;2024-01-10T14:01:59;1.50;99.90
36552;DHT22;22559;54.176;12.102;2024-01-10T14:04:25;1.40;99.90
36552;DHT22;22559;54.176;12.102;2024-01-10T14:06:51;1.50;99.90
36552;DHT22;22559;54.176;12.102;2024-01-10T14:09:16;1.50;99.90
36552;DHT22;22559;54.176;12.102;2024-01-10T14:11:43;1.50;99.90
36552;DHT22;22559;54.176;12.102;2024-01-10T14:14:10;1.50;99.90
36552;DHT22;22559;54.176;12.102;2024-01-10T14:16:36;1.50;99.90
36552;DHT22;22559;54.176;12.102;2024-01-10T14:19:02;1.50;99.90
36552;DHT22;22559;54.176;12.102;2024-01-10T14:21:28;1.50;99.90
36552;DHT22;22559;54.176;12.102;2024-01-10T14:23:53;1.60;99.90
36552;DHT22;22559;54.176;12.102;2024-01-10T14:26:19;1.60;99.90
36552;DHT22;22559;54.176;12.102;2024-01-10T14:28:45;1.60;99.90
36552;DHT22;22559;54.176;12.102;2024-01-10T14:31:11;1.60;99.90
36552;DHT22;22559;54.176;12.102;2024-01-10T14:33:39;1.60;99.90
36552;DHT22;22559;54.176;12.102;2024-01-10T14:36:05;1.50;99.90
36552;DHT22;22559;54.176;12.102;2024-01-10T14:38:31;1.50;99.90
36552;DHT22;22559;54.176;12.102;2024-01-10T14:40:57;1.60;99.90
36552;DHT22;22559;54.176;12.102;2024-01-10T14:43:22;1.60;99.90
36552;DHT22;22559;54.176;12.102;2024-01-10T14:45:48;1.60;99.90
36552;DHT22;22559;54.176;12.102;2024-01-10T14:48:14;1.60;99.90
36552;DHT22;22559;54.176;12.102;2024-01-10T14:50:39;1.60;99.90
36552;DHT22;22559;54.176;12.102;2024-01-10T14:53:05;1.60;99.90
36552;DHT22;22559;54.176;12.102;2024-01-10T14:55:31;1.50;99.90
36552;DHT22;22559;54.176;12.102;2024-01-10T14:57:56;1.40;99.90
36552;DHT22;22559;54.176;12.102;2024-01-10T15:00:22;1.50;99.90
36552;DHT22;22559;54.176;12.102;2024-01-10T15:02:48;1.50;99.90
36552;DHT22;22559;54.176;12.102;2024-01-10T15:05:14;1.50;99.90
36552;DHT22;22559;54.176;12.102;2024-01-10T15:07:39;1.60;99.90
36552;DHT22;22559;54.176;12.102;2024-01-10T15:10:05;1.60;99.90
36552;DHT22;22559;54.176;12.102;2024-01-10T15:12:33;1.60;99.90
36552;DHT22;22559;54.176;12.102;2024-01-10T15:14:58;1.60;99.90
36552;DHT22;22559;54.176;12.102;2024-01-10T15:17:26;1.50;99.90
36552;DHT22;22559;54.176;12.102;2024-01-10T15:19:52;1.60;99.90
36552;DHT22;22559;54.176;12.102;2024-01-10T15:22:18;1.60;99.90
36552;DHT22;22559;54.176;12.102;2024-01-10T15:24:43;1.50;99.90
36552;DHT22;22559;54.176;12.102;2024-01-10T15:27:09;1.50;99.90
36552;DHT22;22559;54.176;12.102;2024-01-10T15:29:39;1.60;99.90